Time;durP1;ratioP1;P1;durP2;ratioP2;P2;SDS_P1;SDS_P2;PMS_P1;PMS_P2;Temp;Humidity;BMP_temperature;BMP_pressure;BME280_temperature;BME280_humidity;BME280_pressure;Samples;Min_cycle;Max_cycle;Signal;HPM_P1;HPM_P2
2022/10/20 00:00:02;;;;;;;;;;;9.20;82.30;;;;;;5060964;28;19920;-76
2022/10/20 00:02:27;;;;;;;;;;;9.10;82.20;;;;;;5070099;28;19947;-76
2022/10/20 00:04:53;;;;;;;;;;;9.10;82.20;;;;;;5059233;28;19916;-76
2022/10/20 00:07:18;;;;;;;;;;;9.10;82.30;;;;;;5079887;28;20446;-76
2022/10/20 00:09:44;;;;;;;;;;;9.00;82.20;;;;;;5079289;28;20012;-77
2022/10/20 00:12:09;;;;;;;;;;;9.00;82.30;;;;;;5059939;28;20443;-76
2022/10/20 00:14:35;;;;;;;;;;;9.00;82.30;;;;;;5059324;28;19954;-76
2022/10/20 00:17:00;;;;;;;;;;;9.00;82.30;;;;;;5075360;28;20030;-76
2022/10/20 00:19:26;;;;;;;;;;;9.00;82.40;;;;;;5062431;28;19973;-75
2022/10/20 00:21:52;;;;;;;;;;;8.90;82.40;;;;;;5073173;28;20017;-74
2022/10/20 00:24:20;;;;;;;;;;;8.90;82.40;;;;;;5063632;28;19916;-75
2022/10/20 00:26:45;;;;;;;;;;;8.90;82.40;;;;;;5056841;28;19917;-75
2022/10/20 00:29:11;;;;;;;;;;;8.80;82.40;;;;;;5053466;28;19925;-76
2022/10/20 00:31:36;;;;;;;;;;;8.80;82.40;;;;;;5074811;28;19921;-76
2022/10/20 00:34:02;;;;;;;;;;;8.80;82.40;;;;;;5074419;28;19927;-76
2022/10/20 00:36:27;;;;;;;;;;;8.80;82.50;;;;;;5077894;28;19916;-75
2022/10/20 00:38:57;;;;;;;;;;;8.70;82.40;;;;;;5071778;28;19968;-76
2022/10/20 00:41:22;;;;;;;;;;;8.70;82.50;;;;;;5077512;28;19947;-75
2022/10/20 00:43:52;;;;;;;;;;;8.70;82.60;;;;;;5058888;28;20301;-76
2022/10/20 00:46:21;;;;;;;;;;;8.70;82.60;;;;;;5077472;28;19920;-76
2022/10/20 00:48:48;;;;;;;;;;;8.60;82.60;;;;;;5075593;28;19934;-76
2022/10/20 00:51:14;;;;;;;;;;;8.70;82.60;;;;;;5058319;28;20761;-76
2022/10/20 00:53:40;;;;;;;;;;;8.60;82.60;;;;;;5057491;28;19932;-76
2022/10/20 00:56:05;;;;;;;;;;;8.60;82.60;;;;;;5074084;28;19931;-76
2022/10/20 00:58:31;;;;;;;;;;;8.60;82.70;;;;;;5060511;28;19965;-76
2022/10/20 01:00:56;;;;;;;;;;;8.50;82.60;;;;;;5076582;28;19955;-76
2022/10/20 01:03:27;;;;;;;;;;;8.50;82.60;;;;;;5074631;28;20389;-76
2022/10/20 01:05:52;;;;;;;;;;;8.50;82.70;;;;;;5059546;28;20284;-75
2022/10/20 01:08:18;;;;;;;;;;;8.50;82.70;;;;;;5076455;28;19920;-75
2022/10/20 01:10:50;;;;;;;;;;;8.40;82.70;;;;;;5046070;28;19941;-76
2022/10/20 01:13:23;;;;;;;;;;;8.40;82.70;;;;;;5056108;28;19924;-75
2022/10/20 01:15:51;;;;;;;;;;;8.50;82.80;;;;;;5075072;28;19931;-76
2022/10/20 01:18:22;;;;;;;;;;;8.40;82.80;;;;;;5073061;28;20364;-75
2022/10/20 01:20:50;;;;;;;;;;;8.40;82.70;;;;;;5032431;28;20613;-76
2022/10/20 01:23:31;;;;;;;;;;;8.30;82.70;;;;;;5071222;28;19916;-76
2022/10/20 01:26:15;;;;;;;;;;;8.40;82.80;;;;;;5076262;28;19930;-77
2022/10/20 01:29:01;;;;;;;;;;;8.30;82.70;;;;;;5073495;28;19916;-76
2022/10/20 01:31:32;;;;;;;;;;;8.30;82.80;;;;;;5075632;28;19922;-76
2022/10/20 01:34:02;;;;;;;;;;;8.30;82.80;;;;;;5074769;28;20452;-76
2022/10/20 01:36:29;;;;;;;;;;;8.20;82.80;;;;;;5061086;28;19916;-77
2022/10/20 01:39:00;;;;;;;;;;;8.20;82.80;;;;;;5073476;28;19997;-76
2022/10/20 01:41:32;;;;;;;;;;;8.20;82.80;;;;;;5076187;28;19927;-76
2022/10/20 01:43:59;;;;;;;;;;;8.20;82.80;;;;;;5061657;28;19920;-76
2022/10/20 01:46:24;;;;;;;;;;;8.10;82.90;;;;;;5060064;28;20315;-75
2022/10/20 01:48:49;;;;;;;;;;;8.10;82.80;;;;;;5054901;28;19922;-75
2022/10/20 01:51:15;;;;;;;;;;;8.10;82.80;;;;;;5075287;28;19951;-76
2022/10/20 01:53:40;;;;;;;;;;;8.10;82.90;;;;;;5041906;28;19942;-76
2022/10/20 01:56:09;;;;;;;;;;;8.00;82.80;;;;;;5057509;28;19924;-75
2022/10/20 01:58:47;;;;;;;;;;;8.00;82.90;;;;;;5057193;28;19920;-76
2022/10/20 02:01:12;;;;;;;;;;;8.00;82.90;;;;;;5074314;28;20694;-75
2022/10/20 02:03:52;;;;;;;;;;;7.90;82.80;;;;;;5076157;28;19924;-76
2022/10/20 02:06:19;;;;;;;;;;;7.90;82.90;;;;;;5075838;28;19916;-76
2022/10/20 02:08:45;;;;;;;;;;;7.90;82.90;;;;;;5060281;28;19927;-76
2022/10/20 02:11:13;;;;;;;;;;;7.90;82.90;;;;;;5039434;28;20582;-77
2022/10/20 02:13:39;;;;;;;;;;;7.80;82.90;;;;;;5076330;28;20498;-76
2022/10/20 02:16:07;;;;;;;;;;;7.80;83.00;;;;;;5040549;28;19920;-77
2022/10/20 02:18:33;;;;;;;;;;;7.80;83.00;;;;;;5074940;28;19924;-75
2022/10/20 02:20:59;;;;;;;;;;;7.80;83.10;;;;;;5058709;28;19916;-75
2022/10/20 02:23:25;;;;;;;;;;;7.70;83.00;;;;;;5052616;28;19923;-75
2022/10/20 02:25:51;;;;;;;;;;;7.70;83.10;;;;;;5052732;28;19923;-75
2022/10/20 02:28:16;;;;;;;;;;;7.70;83.10;;;;;;5056056;28;19955;-76
2022/10/20 02:30:42;;;;;;;;;;;7.70;83.10;;;;;;5076303;28;20414;-76
2022/10/20 02:33:07;;;;;;;;;;;7.70;83.10;;;;;;5072158;28;19916;-76
2022/10/20 02:35:33;;;;;;;;;;;7.70;83.20;;;;;;5073626;28;20311;-76
2022/10/20 02:37:59;;;;;;;;;;;7.70;83.20;;;;;;5069980;28;19924;-75
2022/10/20 02:40:24;;;;;;;;;;;7.70;83.20;;;;;;5075690;28;19916;-76
2022/10/20 02:42:50;;;;;;;;;;;7.60;83.20;;;;;;5043733;28;19992;-75
2022/10/20 02:45:21;;;;;;;;;;;7.60;83.20;;;;;;5075242;28;19931;-76
2022/10/20 02:47:46;;;;;;;;;;;7.60;83.30;;;;;;5055746;28;19963;-75
2022/10/20 02:50:12;;;;;;;;;;;7.60;83.30;;;;;;5057474;28;19971;-76
2022/10/20 02:52:37;;;;;;;;;;;7.60;83.20;;;;;;5049771;28;19920;-76
2022/10/20 02:55:03;;;;;;;;;;;7.60;83.30;;;;;;5059947;28;19928;-75
2022/10/20 02:57:29;;;;;;;;;;;7.60;83.30;;;;;;5076831;28;20270;-76
2022/10/20 02:59:54;;;;;;;;;;;7.50;83.20;;;;;;5074510;28;20392;-76
2022/10/20 03:02:20;;;;;;;;;;;7.50;83.20;;;;;;5072193;28;19921;-76
2022/10/20 03:04:45;;;;;;;;;;;7.50;83.20;;;;;;5073016;28;19920;-76
2022/10/20 03:07:11;;;;;;;;;;;7.50;83.30;;;;;;5074166;28;20275;-78
2022/10/20 03:09:37;;;;;;;;;;;7.50;83.20;;;;;;5048374;28;19946;-76
2022/10/20 03:12:02;;;;;;;;;;;7.50;83.30;;;;;;5061863;28;19921;-76
2022/10/20 03:14:28;;;;;;;;;;;7.50;83.30;;;;;;5060991;28;19977;-76
2022/10/20 03:16:53;;;;;;;;;;;7.50;83.40;;;;;;5059648;28;19917;-77
2022/10/20 03:19:18;;;;;;;;;;;7.50;83.30;;;;;;5054290;28;19958;-75
2022/10/20 03:21:45;;;;;;;;;;;7.50;83.30;;;;;;5078061;28;19917;-77
2022/10/20 03:24:11;;;;;;;;;;;7.40;83.30;;;;;;5057285;28;19924;-76
2022/10/20 03:26:36;;;;;;;;;;;7.50;83.40;;;;;;5067294;28;19920;-77
2022/10/20 03:29:02;;;;;;;;;;;7.40;83.30;;;;;;5080059;28;20342;-75
2022/10/20 03:31:27;;;;;;;;;;;7.40;83.30;;;;;;5068030;28;19916;-75
2022/10/20 03:33:53;;;;;;;;;;;7.40;83.30;;;;;;5076419;28;19939;-76
2022/10/20 03:36:18;;;;;;;;;;;7.50;83.40;;;;;;5060614;28;20640;-78
2022/10/20 03:38:44;;;;;;;;;;;7.40;83.30;;;;;;5077222;28;19977;-76
2022/10/20 03:41:09;;;;;;;;;;;7.40;83.30;;;;;;5074780;28;19927;-75
2022/10/20 03:43:35;;;;;;;;;;;7.40;83.30;;;;;;5085624;28;19942;-76
2022/10/20 03:46:04;;;;;;;;;;;7.40;83.30;;;;;;5093148;28;19904;-75
2022/10/20 03:48:29;;;;;;;;;;;7.40;83.30;;;;;;5069402;28;19924;-76
2022/10/20 03:50:55;;;;;;;;;;;7.40;83.40;;;;;;5068537;28;20032;-76
2022/10/20 03:53:20;;;;;;;;;;;7.40;83.30;;;;;;5088679;28;19932;-76
2022/10/20 03:55:46;;;;;;;;;;;7.40;83.30;;;;;;5092642;28;19927;-75
2022/10/20 03:58:11;;;;;;;;;;;7.40;83.30;;;;;;5051557;28;20476;-77
2022/10/20 04:00:37;;;;;;;;;;;7.40;83.30;;;;;;5084735;28;19923;-75
2022/10/20 04:03:02;;;;;;;;;;;7.40;83.30;;;;;;5089145;28;19928;-75
2022/10/20 04:05:28;;;;;;;;;;;7.30;83.30;;;;;;5071391;28;19924;-75
2022/10/20 04:07:53;;;;;;;;;;;7.30;83.30;;;;;;5087392;28;19995;-76
2022/10/20 04:10:19;;;;;;;;;;;7.30;83.30;;;;;;5059244;28;20693;-75
2022/10/20 04:12:44;;;;;;;;;;;7.30;83.50;;;;;;5087461;28;19916;-77
2022/10/20 04:15:10;;;;;;;;;;;7.30;83.30;;;;;;5081752;28;20051;-76
2022/10/20 04:17:38;;;;;;;;;;;7.30;83.30;;;;;;5086630;28;19923;-77
2022/10/20 04:20:04;;;;;;;;;;;7.20;83.30;;;;;;5078270;28;19924;-76
2022/10/20 04:22:30;;;;;;;;;;;7.20;83.30;;;;;;5076375;28;20014;-75
2022/10/20 04:24:55;;;;;;;;;;;7.20;83.40;;;;;;5070135;28;19970;-76
2022/10/20 04:27:21;;;;;;;;;;;7.20;83.40;;;;;;5084636;28;19916;-76
2022/10/20 04:29:46;;;;;;;;;;;7.20;83.40;;;;;;5091759;28;19920;-75
2022/10/20 04:32:12;;;;;;;;;;;7.20;83.40;;;;;;5085406;28;19981;-77
2022/10/20 04:34:37;;;;;;;;;;;7.20;83.40;;;;;;5086569;28;19946;-76
2022/10/20 04:37:03;;;;;;;;;;;7.20;83.40;;;;;;5070322;28;19927;-75
2022/10/20 04:39:29;;;;;;;;;;;7.20;83.40;;;;;;5076533;28;19931;-76
2022/10/20 04:41:54;;;;;;;;;;;7.10;83.40;;;;;;5075236;28;19920;-77
2022/10/20 04:44:20;;;;;;;;;;;7.10;83.40;;;;;;5092693;28;19917;-76
2022/10/20 04:46:45;;;;;;;;;;;7.10;83.40;;;;;;5089498;28;19988;-76
2022/10/20 04:49:11;;;;;;;;;;;7.10;83.40;;;;;;5089445;28;19931;-75
2022/10/20 04:51:36;;;;;;;;;;;7.10;83.50;;;;;;5068078;28;19920;-76
2022/10/20 04:54:02;;;;;;;;;;;7.10;83.50;;;;;;5067729;28;19933;-76
2022/10/20 04:56:27;;;;;;;;;;;7.10;83.50;;;;;;5075998;28;19917;-76
2022/10/20 04:58:53;;;;;;;;;;;7.10;83.50;;;;;;5074990;28;20019;-76
2022/10/20 05:01:19;;;;;;;;;;;7.10;83.50;;;;;;5073916;28;19921;-77
2022/10/20 05:03:44;;;;;;;;;;;7.10;83.50;;;;;;5061910;28;20023;-75
2022/10/20 05:06:23;;;;;;;;;;;7.10;83.50;;;;;;5062346;28;19925;-76
2022/10/20 05:08:50;;;;;;;;;;;7.10;83.50;;;;;;5058923;28;20334;-75
2022/10/20 05:11:15;;;;;;;;;;;7.10;83.50;;;;;;5071507;28;19920;-77
2022/10/20 05:13:41;;;;;;;;;;;7.10;83.50;;;;;;5065403;28;19920;-76
2022/10/20 05:16:07;;;;;;;;;;;7.10;83.50;;;;;;5083327;28;20402;-76
2022/10/20 05:18:32;;;;;;;;;;;7.10;83.50;;;;;;5068136;28;19967;-76
2022/10/20 05:20:58;;;;;;;;;;;7.10;83.50;;;;;;5072067;28;19920;-76
2022/10/20 05:23:23;;;;;;;;;;;7.10;83.50;;;;;;5063482;28;19916;-76
2022/10/20 05:25:49;;;;;;;;;;;7.10;83.50;;;;;;5061602;28;19923;-76
2022/10/20 05:28:14;;;;;;;;;;;7.10;83.50;;;;;;5059280;28;19924;-76
2022/10/20 05:30:40;;;;;;;;;;;7.10;83.60;;;;;;5060234;28;19928;-77
2022/10/20 05:33:05;;;;;;;;;;;7.10;83.50;;;;;;5061192;28;19995;-76
2022/10/20 05:35:31;;;;;;;;;;;7.10;83.50;;;;;;5062692;28;19923;-76
2022/10/20 05:37:56;;;;;;;;;;;7.10;83.60;;;;;;5058920;28;20525;-77
2022/10/20 05:40:22;;;;;;;;;;;7.10;83.50;;;;;;5063064;28;20614;-75
2022/10/20 05:42:48;;;;;;;;;;;7.10;83.50;;;;;;5060067;28;19958;-76
2022/10/20 05:45:13;;;;;;;;;;;7.10;83.50;;;;;;5063867;28;19917;-76
2022/10/20 05:47:38;;;;;;;;;;;7.10;83.50;;;;;;5061148;28;20357;-76
2022/10/20 05:50:04;;;;;;;;;;;7.10;83.50;;;;;;5060775;28;19925;-76
2022/10/20 05:52:30;;;;;;;;;;;7.10;83.50;;;;;;5078199;28;20300;-76
2022/10/20 05:54:55;;;;;;;;;;;7.20;83.50;;;;;;5061859;28;19925;-76
2022/10/20 05:57:21;;;;;;;;;;;7.20;83.50;;;;;;5080792;28;19928;-76
2022/10/20 05:59:46;;;;;;;;;;;7.20;83.50;;;;;;5076043;28;19955;-76
2022/10/20 06:02:12;;;;;;;;;;;7.20;83.50;;;;;;5076108;28;19949;-77
2022/10/20 06:04:37;;;;;;;;;;;7.20;83.50;;;;;;5078762;28;19928;-77
2022/10/20 06:07:04;;;;;;;;;;;7.20;83.50;;;;;;5076527;28;19920;-75
2022/10/20 06:09:30;;;;;;;;;;;7.20;83.50;;;;;;5077979;28;19920;-77
2022/10/20 06:11:55;;;;;;;;;;;7.30;83.50;;;;;;5078448;28;19923;-76
2022/10/20 06:14:21;;;;;;;;;;;7.30;84.30;;;;;;5078388;28;19940;-77
2022/10/20 06:16:48;;;;;;;;;;;7.30;83.50;;;;;;5077122;28;20373;-75
2022/10/20 06:19:14;;;;;;;;;;;7.30;83.50;;;;;;5077331;28;19922;-77
2022/10/20 06:21:39;;;;;;;;;;;7.30;83.50;;;;;;5071090;28;19995;-76
2022/10/20 06:24:05;;;;;;;;;;;7.40;83.50;;;;;;5057978;28;20377;-76
2022/10/20 06:26:35;;;;;;;;;;;7.40;83.50;;;;;;5075132;28;19920;-76
2022/10/20 06:29:01;;;;;;;;;;;7.40;83.40;;;;;;5072017;28;19925;-76
2022/10/20 06:31:27;;;;;;;;;;;7.50;83.50;;;;;;5077459;28;19916;-76
2022/10/20 06:33:52;;;;;;;;;;;7.50;83.40;;;;;;5073472;28;19928;-76
2022/10/20 06:36:18;;;;;;;;;;;7.50;83.40;;;;;;5061714;28;19923;-76
2022/10/20 06:38:46;;;;;;;;;;;7.60;83.40;;;;;;5084935;28;19927;-76
2022/10/20 06:41:13;;;;;;;;;;;7.60;83.40;;;;;;5081903;28;19964;-77
2022/10/20 06:43:39;;;;;;;;;;;7.60;83.30;;;;;;5083095;28;19938;-76
2022/10/20 06:46:05;;;;;;;;;;;7.70;83.40;;;;;;5084514;28;19951;-77
2022/10/20 06:48:31;;;;;;;;;;;7.70;83.30;;;;;;5079937;28;19947;-76
2022/10/20 06:50:57;;;;;;;;;;;7.70;83.30;;;;;;5081406;28;19968;-76
2022/10/20 06:53:23;;;;;;;;;;;7.70;83.20;;;;;;5078131;28;20478;-76
2022/10/20 06:55:58;;;;;;;;;;;7.80;83.30;;;;;;5082614;28;19916;-76
2022/10/20 06:58:23;;;;;;;;;;;7.80;83.20;;;;;;5077259;28;20306;-76
2022/10/20 07:01:05;;;;;;;;;;;7.90;83.20;;;;;;5080816;28;19916;-77
2022/10/20 07:03:30;;;;;;;;;;;7.90;83.20;;;;;;5082834;28;19920;-76
2022/10/20 07:05:56;;;;;;;;;;;7.90;83.10;;;;;;5072637;28;19925;-76
2022/10/20 07:08:22;;;;;;;;;;;8.00;83.20;;;;;;5085630;28;19917;-77
2022/10/20 07:10:56;;;;;;;;;;;8.00;83.20;;;;;;5053945;28;19923;-76
2022/10/20 07:13:21;;;;;;;;;;;8.10;83.10;;;;;;5062500;28;20555;-76
2022/10/20 07:15:47;;;;;;;;;;;8.10;83.10;;;;;;5067993;28;19970;-76
2022/10/20 07:18:12;;;;;;;;;;;8.20;83.10;;;;;;5083061;28;20011;-77
2022/10/20 07:20:38;;;;;;;;;;;8.20;83.00;;;;;;5080713;28;19927;-78
2022/10/20 07:23:03;;;;;;;;;;;8.30;83.10;;;;;;5083725;28;19993;-76
2022/10/20 07:25:29;;;;;;;;;;;8.30;83.00;;;;;;5081354;28;19944;-77
2022/10/20 07:27:54;;;;;;;;;;;8.40;83.00;;;;;;5051614;28;19917;-76
2022/10/20 07:30:20;;;;;;;;;;;8.40;82.90;;;;;;5069117;28;20007;-76
2022/10/20 07:32:45;;;;;;;;;;;8.40;82.80;;;;;;5080301;28;19920;-77
2022/10/20 07:35:10;;;;;;;;;;;8.50;82.90;;;;;;5082464;28;19924;-77
2022/10/20 07:37:36;;;;;;;;;;;8.60;82.80;;;;;;5074635;28;19916;-76
2022/10/20 07:40:01;;;;;;;;;;;8.70;82.90;;;;;;5079874;28;20376;-77
2022/10/20 07:42:27;;;;;;;;;;;8.70;82.80;;;;;;5077648;28;19916;-78
2022/10/20 07:44:53;;;;;;;;;;;8.80;82.70;;;;;;5079180;28;19921;-77
2022/10/20 07:47:18;;;;;;;;;;;8.80;83.40;;;;;;5079185;28;19923;-76
2022/10/20 07:49:44;;;;;;;;;;;8.90;82.70;;;;;;5081649;28;20293;-76
2022/10/20 07:52:09;;;;;;;;;;;8.90;82.60;;;;;;5063203;28;19924;-77
2022/10/20 07:54:35;;;;;;;;;;;9.00;82.60;;;;;;5083347;28;19924;-79
2022/10/20 07:57:00;;;;;;;;;;;9.00;82.50;;;;;;5073321;28;20373;-76
2022/10/20 07:59:27;;;;;;;;;;;9.10;82.50;;;;;;5060711;28;19948;-76
2022/10/20 08:01:52;;;;;;;;;;;9.20;82.40;;;;;;5066045;28;19917;-75
2022/10/20 08:04:18;;;;;;;;;;;9.20;82.40;;;;;;5064464;28;19923;-75
2022/10/20 08:06:46;;;;;;;;;;;9.30;82.40;;;;;;5061910;28;20058;-77
2022/10/20 08:09:11;;;;;;;;;;;9.30;82.30;;;;;;5065345;28;19920;-76
2022/10/20 08:11:36;;;;;;;;;;;9.40;82.30;;;;;;5057488;28;20552;-75
2022/10/20 08:14:02;;;;;;;;;;;9.40;82.20;;;;;;5065288;28;19924;-76
2022/10/20 08:16:27;;;;;;;;;;;9.50;82.20;;;;;;5059727;28;19976;-77
2022/10/20 08:18:53;;;;;;;;;;;9.50;82.10;;;;;;5055372;28;19924;-75
2022/10/20 08:21:19;;;;;;;;;;;9.60;82.20;;;;;;5070046;28;19925;-76
2022/10/20 08:23:45;;;;;;;;;;;9.60;82.10;;;;;;5068018;28;20270;-76
2022/10/20 08:26:11;;;;;;;;;;;9.60;82.90;;;;;;5060314;28;20395;-76
2022/10/20 08:28:36;;;;;;;;;;;9.70;82.00;;;;;;5077103;28;19926;-77
2022/10/20 08:31:05;;;;;;;;;;;9.80;82.00;;;;;;5078286;28;20071;-75
2022/10/20 08:33:31;;;;;;;;;;;9.80;82.00;;;;;;5077887;28;19924;-76
2022/10/20 08:36:06;;;;;;;;;;;9.90;81.90;;;;;;5073836;28;19927;-76
2022/10/20 08:38:31;;;;;;;;;;;10.00;81.90;;;;;;5072523;28;19920;-76
2022/10/20 08:40:57;;;;;;;;;;;10.10;81.90;;;;;;5074544;28;20308;-76
2022/10/20 08:43:23;;;;;;;;;;;10.10;81.70;;;;;;5047327;28;19924;-75
2022/10/20 08:45:48;;;;;;;;;;;10.20;81.70;;;;;;5075012;28;19924;-77
2022/10/20 08:48:15;;;;;;;;;;;10.20;81.60;;;;;;5077615;28;19923;-75
2022/10/20 08:50:42;;;;;;;;;;;10.30;81.60;;;;;;5076954;28;20023;-77
2022/10/20 08:53:08;;;;;;;;;;;10.40;81.60;;;;;;5072470;28;19924;-77
2022/10/20 08:55:33;;;;;;;;;;;10.40;81.50;;;;;;5073283;28;19951;-77
2022/10/20 08:58:00;;;;;;;;;;;10.50;81.50;;;;;;5075181;28;19920;-76
2022/10/20 09:00:26;;;;;;;;;;;10.60;81.50;;;;;;5077319;28;19924;-76
2022/10/20 09:02:51;;;;;;;;;;;10.60;81.40;;;;;;5077759;28;20288;-77
2022/10/20 09:05:19;;;;;;;;;;;10.70;81.30;;;;;;5073894;28;19920;-76
2022/10/20 09:07:47;;;;;;;;;;;10.80;81.30;;;;;;5077011;28;19924;-76
2022/10/20 09:10:17;;;;;;;;;;;10.80;81.30;;;;;;5075736;28;19928;-76
2022/10/20 09:12:43;;;;;;;;;;;10.90;81.20;;;;;;5061634;28;20291;-76
2022/10/20 09:15:12;;;;;;;;;;;11.00;81.20;;;;;;5073359;28;19971;-75
2022/10/20 09:17:50;;;;;;;;;;;11.10;81.20;;;;;;5075806;28;19920;-76
2022/10/20 09:20:18;;;;;;;;;;;11.10;81.00;;;;;;5072581;28;20019;-76
2022/10/20 09:22:43;;;;;;;;;;;11.30;81.00;;;;;;5058301;28;19924;-77
2022/10/20 09:25:12;;;;;;;;;;;11.40;80.90;;;;;;5083867;28;19965;-77
2022/10/20 09:27:41;;;;;;;;;;;11.40;80.80;;;;;;5061641;28;19920;-77
2022/10/20 09:30:13;;;;;;;;;;;11.50;80.80;;;;;;5079657;28;20006;-78
2022/10/20 09:32:39;;;;;;;;;;;11.60;80.70;;;;;;5078125;28;19924;-77
2022/10/20 09:35:13;;;;;;;;;;;11.70;80.70;;;;;;5078061;28;20285;-76
2022/10/20 09:37:39;;;;;;;;;;;11.80;80.60;;;;;;5078975;28;19931;-77
2022/10/20 09:40:11;;;;;;;;;;;11.90;80.60;;;;;;5076430;28;20010;-78
2022/10/20 09:42:37;;;;;;;;;;;11.90;80.50;;;;;;5077895;28;19920;-78
2022/10/20 09:45:15;;;;;;;;;;;12.00;80.40;;;;;;5057031;28;19920;-76
2022/10/20 09:47:41;;;;;;;;;;;12.10;80.40;;;;;;5077072;28;19935;-77
2022/10/20 09:50:07;;;;;;;;;;;12.20;80.30;;;;;;5072656;28;19924;-77
2022/10/20 09:52:36;;;;;;;;;;;12.30;80.20;;;;;;5057845;28;19950;-77
2022/10/20 09:55:22;;;;;;;;;;;12.40;80.10;;;;;;5058888;28;20572;-77
2022/10/20 09:57:47;;;;;;;;;;;12.50;80.10;;;;;;5078348;28;20063;-76
2022/10/20 10:00:23;;;;;;;;;;;12.60;80.00;;;;;;5075606;28;20563;-78
2022/10/20 10:02:48;;;;;;;;;;;12.70;79.90;;;;;;5052900;28;19920;-77
2022/10/20 10:05:15;;;;;;;;;;;12.80;79.80;;;;;;5048593;28;19922;-78
2022/10/20 10:07:40;;;;;;;;;;;12.80;79.70;;;;;;5053080;28;19946;-75
2022/10/20 10:10:18;;;;;;;;;;;12.90;79.60;;;;;;5074959;28;21120;-76
2022/10/20 10:12:49;;;;;;;;;;;13.00;79.50;;;;;;5074914;28;19924;-77
2022/10/20 10:15:18;;;;;;;;;;;13.10;79.40;;;;;;5058901;28;19920;-76
2022/10/20 10:17:43;;;;;;;;;;;13.20;79.40;;;;;;5075629;28;19931;-76
2022/10/20 10:20:09;;;;;;;;;;;13.30;79.40;;;;;;5077116;28;19916;-76
2022/10/20 10:22:34;;;;;;;;;;;13.40;79.30;;;;;;5074897;28;20309;-76
2022/10/20 10:25:00;;;;;;;;;;;13.50;79.20;;;;;;5070585;28;19916;-77
2022/10/20 10:27:29;;;;;;;;;;;13.60;79.10;;;;;;5077366;28;20011;-77
2022/10/20 10:29:55;;;;;;;;;;;13.80;79.10;;;;;;5077482;28;19931;-77
2022/10/20 10:32:27;;;;;;;;;;;14.00;79.00;;;;;;5073369;28;19927;-77
2022/10/20 10:35:11;;;;;;;;;;;14.10;78.80;;;;;;5060027;28;19926;-76
2022/10/20 10:37:37;;;;;;;;;;;14.20;78.50;;;;;;5072388;28;19923;-78
2022/10/20 10:40:13;;;;;;;;;;;14.30;78.40;;;;;;5075270;28;20019;-76
2022/10/20 10:42:49;;;;;;;;;;;14.30;78.30;;;;;;5053459;28;19920;-77
2022/10/20 10:45:21;;;;;;;;;;;14.30;78.20;;;;;;5077859;28;19924;-75
2022/10/20 10:48:06;;;;;;;;;;;14.40;78.30;;;;;;5053693;28;19916;-76
2022/10/20 10:50:50;;;;;;;;;;;14.40;78.30;;;;;;5076481;28;19920;-78
2022/10/20 10:53:21;;;;;;;;;;;14.40;78.30;;;;;;5076640;28;20010;-77
2022/10/20 10:55:50;;;;;;;;;;;14.50;78.20;;;;;;5078866;28;19931;-77
2022/10/20 10:58:28;;;;;;;;;;;14.60;78.20;;;;;;5075077;28;20376;-76
2022/10/20 11:01:02;;;;;;;;;;;14.60;78.10;;;;;;5077526;28;20368;-77
2022/10/20 11:03:41;;;;;;;;;;;14.60;78.00;;;;;;5049016;28;19916;-77
2022/10/20 11:06:28;;;;;;;;;;;14.70;78.00;;;;;;5074764;28;19924;-76
2022/10/20 11:09:25;;;;;;;;;;;14.80;78.00;;;;;;5074616;28;19924;-76
2022/10/20 11:11:55;;;;;;;;;;;14.90;78.00;;;;;;5032029;28;19963;-76
2022/10/20 11:14:23;;;;;;;;;;;15.10;78.00;;;;;;5070085;28;19947;-76
2022/10/20 11:17:07;;;;;;;;;;;15.30;78.00;;;;;;5076603;28;19920;-77
2022/10/20 11:19:52;;;;;;;;;;;15.50;77.80;;;;;;5072440;28;20626;-77
2022/10/20 11:22:23;;;;;;;;;;;15.70;77.50;;;;;;5073613;28;19920;-76
2022/10/20 11:24:51;;;;;;;;;;;15.90;77.20;;;;;;5073807;28;19916;-76
2022/10/20 11:27:18;;;;;;;;;;;16.00;77.10;;;;;;5060263;28;20342;-76
2022/10/20 11:29:49;;;;;;;;;;;16.00;76.90;;;;;;5057207;28;19954;-76
2022/10/20 11:32:18;;;;;;;;;;;16.10;76.80;;;;;;5076150;28;19920;-76
2022/10/20 11:34:58;;;;;;;;;;;16.10;76.80;;;;;;5076097;28;20012;-76
2022/10/20 11:37:24;;;;;;;;;;;16.10;76.80;;;;;;5073137;28;19917;-77
2022/10/20 11:40:02;;;;;;;;;;;16.20;76.80;;;;;;5057867;28;20441;-76
2022/10/20 11:42:35;;;;;;;;;;;16.20;76.70;;;;;;5047328;28;19924;-77
2022/10/20 11:45:18;;;;;;;;;;;16.20;76.60;;;;;;5058231;28;19966;-78
2022/10/20 11:47:44;;;;;;;;;;;16.20;76.70;;;;;;5061234;28;19955;-76
2022/10/20 11:50:10;;;;;;;;;;;16.20;76.70;;;;;;5078484;28;19916;-76
2022/10/20 11:52:38;;;;;;;;;;;16.20;76.60;;;;;;5081370;28;19927;-76
2022/10/20 11:55:22;;;;;;;;;;;16.10;76.60;;;;;;5075233;28;20308;-76
2022/10/20 11:58:06;;;;;;;;;;;16.10;76.50;;;;;;5058242;28;19966;-76
2022/10/20 12:00:31;;;;;;;;;;;16.10;76.70;;;;;;5076929;28;19916;-76
2022/10/20 12:03:06;;;;;;;;;;;16.10;76.80;;;;;;5074250;28;20452;-76
2022/10/20 12:05:41;;;;;;;;;;;16.10;76.80;;;;;;5077481;28;19923;-76
2022/10/20 12:08:21;;;;;;;;;;;16.10;76.80;;;;;;5074561;28;19931;-77
2022/10/20 12:10:52;;;;;;;;;;;16.10;76.80;;;;;;5077038;28;19923;-76
2022/10/20 12:13:36;;;;;;;;;;;16.20;76.90;;;;;;5059016;28;19916;-76
2022/10/20 12:16:02;;;;;;;;;;;16.20;76.80;;;;;;5075294;28;19925;-77
2022/10/20 12:18:28;;;;;;;;;;;16.30;76.80;;;;;;5077653;28;19916;-77
2022/10/20 12:20:55;;;;;;;;;;;16.30;76.70;;;;;;5077759;28;19928;-78
2022/10/20 12:24:02;;;;;;;;;;;16.40;76.70;;;;;;5076837;28;20456;-77
2022/10/20 12:26:34;;;;;;;;;;;16.40;76.60;;;;;;4996971;28;19921;-76
2022/10/20 12:29:02;;;;;;;;;;;16.50;76.60;;;;;;4996650;28;19917;-76
2022/10/20 12:31:47;;;;;;;;;;;16.50;76.40;;;;;;4997690;28;20016;-76
2022/10/20 12:34:22;;;;;;;;;;;16.50;76.40;;;;;;4994783;28;20084;-77
2022/10/20 12:36:47;;;;;;;;;;;16.50;76.40;;;;;;4999117;28;19928;-77
2022/10/20 12:39:14;;;;;;;;;;;16.50;76.30;;;;;;4997125;28;19925;-76
2022/10/20 12:41:59;;;;;;;;;;;16.50;76.40;;;;;;4981572;28;19922;-76
2022/10/20 12:44:24;;;;;;;;;;;16.50;76.40;;;;;;4983964;28;20421;-77
2022/10/20 12:46:52;;;;;;;;;;;16.50;76.40;;;;;;4983574;28;19965;-77
2022/10/20 12:49:21;;;;;;;;;;;16.50;76.40;;;;;;4998306;28;19921;-76
2022/10/20 12:51:47;;;;;;;;;;;16.60;76.40;;;;;;4997851;28;20370;-77
2022/10/20 12:54:18;;;;;;;;;;;16.60;76.40;;;;;;4997755;28;19937;-77
2022/10/20 12:56:44;;;;;;;;;;;16.60;76.40;;;;;;5022928;28;19924;-76
2022/10/20 12:59:20;;;;;;;;;;;16.60;76.40;;;;;;5071089;28;20324;-77
2022/10/20 13:02:03;;;;;;;;;;;16.60;77.20;;;;;;5056006;28;19921;-78
2022/10/20 13:04:48;;;;;;;;;;;16.70;76.40;;;;;;5075068;28;19924;-77
2022/10/20 13:07:13;;;;;;;;;;;16.70;76.30;;;;;;5071891;28;19920;-76
2022/10/20 13:09:52;;;;;;;;;;;16.70;76.30;;;;;;5072463;28;20292;-77
2022/10/20 13:12:25;;;;;;;;;;;16.70;76.30;;;;;;5076081;28;19959;-76
2022/10/20 13:14:52;;;;;;;;;;;16.70;76.20;;;;;;5074726;28;20292;-77
2022/10/20 13:17:22;;;;;;;;;;;16.70;76.20;;;;;;5077276;28;19916;-76
2022/10/20 13:19:56;;;;;;;;;;;16.80;76.20;;;;;;5059692;28;19916;-76
2022/10/20 13:22:38;;;;;;;;;;;16.80;76.20;;;;;;5058699;28;19920;-76
2022/10/20 13:25:04;;;;;;;;;;;16.80;76.20;;;;;;5047316;28;19931;-77
2022/10/20 13:27:30;;;;;;;;;;;16.80;76.20;;;;;;5055984;28;20287;-77
2022/10/20 13:29:55;;;;;;;;;;;16.80;76.10;;;;;;5072862;28;20011;-77
2022/10/20 13:32:22;;;;;;;;;;;16.80;76.10;;;;;;5058808;28;19924;-76
2022/10/20 13:34:50;;;;;;;;;;;16.80;76.10;;;;;;5072592;28;20389;-78
2022/10/20 13:37:26;;;;;;;;;;;16.80;76.20;;;;;;5072047;28;19916;-76
2022/10/20 13:39:58;;;;;;;;;;;16.80;76.20;;;;;;5073075;28;19923;-76
2022/10/20 13:42:50;;;;;;;;;;;16.80;76.20;;;;;;5076298;28;19916;-76
2022/10/20 13:45:24;;;;;;;;;;;16.80;76.20;;;;;;5071224;28;19922;-76
2022/10/20 13:47:50;;;;;;;;;;;16.80;76.20;;;;;;5067391;28;19920;-76
2022/10/20 13:50:20;;;;;;;;;;;16.80;76.20;;;;;;5070432;28;19916;-76
2022/10/20 13:52:46;;;;;;;;;;;16.70;76.20;;;;;;5073444;28;19955;-76
2022/10/20 13:55:14;;;;;;;;;;;16.70;76.20;;;;;;5073521;28;19928;-77
2022/10/20 13:57:45;;;;;;;;;;;16.80;76.20;;;;;;5057492;28;19939;-76
2022/10/20 14:00:18;;;;;;;;;;;16.80;76.20;;;;;;5055091;28;20381;-77
2022/10/20 14:02:54;;;;;;;;;;;16.70;76.10;;;;;;5071621;28;19924;-77
2022/10/20 14:05:20;;;;;;;;;;;16.80;76.20;;;;;;5075412;28;19969;-76
2022/10/20 14:07:45;;;;;;;;;;;16.70;76.10;;;;;;5072628;28;19916;-77
2022/10/20 14:10:27;;;;;;;;;;;16.80;76.10;;;;;;5078371;28;19920;-76
2022/10/20 14:12:54;;;;;;;;;;;16.70;76.10;;;;;;5074054;28;19920;-76
2022/10/20 14:15:27;;;;;;;;;;;16.70;76.10;;;;;;5070095;28;19925;-76
2022/10/20 14:17:56;;;;;;;;;;;16.70;76.20;;;;;;5072949;28;20023;-76
2022/10/20 14:20:22;;;;;;;;;;;16.70;76.10;;;;;;5052817;28;19977;-77
2022/10/20 14:22:47;;;;;;;;;;;16.70;76.10;;;;;;5074257;28;19928;-75
2022/10/20 14:25:12;;;;;;;;;;;16.60;76.90;;;;;;5055131;28;20557;-76
2022/10/20 14:27:38;;;;;;;;;;;16.60;76.10;;;;;;5071089;28;19928;-77
2022/10/20 14:30:04;;;;;;;;;;;16.60;76.20;;;;;;5071373;28;20648;-77